sensor_id;sensor_type;location;lat;lon;timestamp;P1;durP1;ratioP1;P2;durP2;ratioP2
82793;SDS011;72533;52.852;6.176;2024-01-30T00:00:14;21.53;;;14.93;;
82793;SDS011;72533;52.852;6.176;2024-01-30T00:02:39;25.45;;;15.55;;
82793;SDS011;72533;52.852;6.176;2024-01-30T00:05:04;23.63;;;15.03;;
82793;SDS011;72533;52.852;6.176;2024-01-30T00:07:29;24.30;;;16.45;;
82793;SDS011;72533;52.852;6.176;2024-01-30T00:09:55;22.40;;;15.87;;
82793;SDS011;72533;52.852;6.176;2024-01-30T00:12:20;22.23;;;13.27;;
82793;SDS011;72533;52.852;6.176;2024-01-30T00:14:46;21.50;;;13.70;;
82793;SDS011;72533;52.852;6.176;2024-01-30T00:17:11;22.77;;;13.00;;
82793;SDS011;72533;52.852;6.176;2024-01-30T00:19:36;23.60;;;14.83;;
82793;SDS011;72533;52.852;6.176;2024-01-30T00:22:01;23.23;;;14.40;;
82793;SDS011;72533;52.852;6.176;2024-01-30T00:24:26;22.80;;;15.63;;
82793;SDS011;72533;52.852;6.176;2024-01-30T00:26:52;20.03;;;14.27;;
82793;SDS011;72533;52.852;6.176;2024-01-30T00:29:17;22.27;;;14.50;;
82793;SDS011;72533;52.852;6.176;2024-01-30T00:31:44;20.73;;;13.50;;
82793;SDS011;72533;52.852;6.176;2024-01-30T00:34:10;20.13;;;13.55;;
82793;SDS011;72533;52.852;6.176;2024-01-30T00:36:35;20.90;;;12.87;;
82793;SDS011;72533;52.852;6.176;2024-01-30T00:39:00;26.20;;;15.67;;
82793;SDS011;72533;52.852;6.176;2024-01-30T00:41:25;20.17;;;13.50;;
82793;SDS011;72533;52.852;6.176;2024-01-30T00:43:51;19.38;;;12.38;;
82793;SDS011;72533;52.852;6.176;2024-01-30T00:46:17;22.33;;;14.47;;
82793;SDS011;72533;52.852;6.176;2024-01-30T00:48:42;19.37;;;12.27;;
82793;SDS011;72533;52.852;6.176;2024-01-30T00:51:07;20.40;;;11.50;;
82793;SDS011;72533;52.852;6.176;2024-01-30T00:53:32;19.83;;;13.57;;
82793;SDS011;72533;52.852;6.176;2024-01-30T00:55:58;22.00;;;14.00;;
82793;SDS011;72533;52.852;6.176;2024-01-30T00:58:23;25.97;;;14.10;;
82793;SDS011;72533;52.852;6.176;2024-01-30T01:00:48;22.97;;;14.97;;
82793;SDS011;72533;52.852;6.176;2024-01-30T01:03:13;25.20;;;14.93;;
82793;SDS011;72533;52.852;6.176;2024-01-30T01:05:39;22.00;;;14.10;;
82793;SDS011;72533;52.852;6.176;2024-01-30T01:08:04;24.83;;;15.97;;
82793;SDS011;72533;52.852;6.176;2024-01-30T01:10:29;22.43;;;13.97;;
82793;SDS011;72533;52.852;6.176;2024-01-30T01:12:54;23.60;;;15.60;;
82793;SDS011;72533;52.852;6.176;2024-01-30T01:15:19;22.23;;;14.13;;
82793;SDS011;72533;52.852;6.176;2024-01-30T01:17:45;17.53;;;12.70;;
82793;SDS011;72533;52.852;6.176;2024-01-30T01:20:10;15.10;;;10.07;;
82793;SDS011;72533;52.852;6.176;2024-01-30T01:22:36;23.75;;;13.93;;
82793;SDS011;72533;52.852;6.176;2024-01-30T01:25:01;21.63;;;15.37;;
82793;SDS011;72533;52.852;6.176;2024-01-30T01:27:26;18.73;;;14.87;;
82793;SDS011;72533;52.852;6.176;2024-01-30T01:29:52;20.33;;;13.73;;
82793;SDS011;72533;52.852;6.176;2024-01-30T01:32:17;20.05;;;12.73;;
82793;SDS011;72533;52.852;6.176;2024-01-30T01:34:42;23.75;;;15.90;;
82793;SDS011;72533;52.852;6.176;2024-01-30T01:37:08;18.10;;;11.83;;
82793;SDS011;72533;52.852;6.176;2024-01-30T01:39:33;22.30;;;16.63;;
82793;SDS011;72533;52.852;6.176;2024-01-30T01:41:58;22.63;;;15.97;;
82793;SDS011;72533;52.852;6.176;2024-01-30T01:44:23;24.20;;;16.37;;
82793;SDS011;72533;52.852;6.176;2024-01-30T01:46:48;18.03;;;12.57;;
82793;SDS011;72533;52.852;6.176;2024-01-30T01:49:14;21.30;;;14.85;;
82793;SDS011;72533;52.852;6.176;2024-01-30T01:51:39;22.40;;;15.05;;
82793;SDS011;72533;52.852;6.176;2024-01-30T01:54:06;19.17;;;11.00;;
82793;SDS011;72533;52.852;6.176;2024-01-30T01:56:31;23.30;;;13.93;;
82793;SDS011;72533;52.852;6.176;2024-01-30T01:58:59;17.48;;;10.95;;
82793;SDS011;72533;52.852;6.176;2024-01-30T02:01:24;17.67;;;12.70;;
82793;SDS011;72533;52.852;6.176;2024-01-30T02:03:50;24.20;;;16.50;;
82793;SDS011;72533;52.852;6.176;2024-01-30T02:06:15;15.93;;;10.33;;
82793;SDS011;72533;52.852;6.176;2024-01-30T02:08:41;25.10;;;16.38;;
82793;SDS011;72533;52.852;6.176;2024-01-30T02:11:06;22.48;;;15.77;;
82793;SDS011;72533;52.852;6.176;2024-01-30T02:13:32;25.23;;;17.67;;
82793;SDS011;72533;52.852;6.176;2024-01-30T02:15:57;23.13;;;15.90;;
82793;SDS011;72533;52.852;6.176;2024-01-30T02:18:22;25.43;;;16.67;;
82793;SDS011;72533;52.852;6.176;2024-01-30T02:20:47;23.95;;;16.63;;
82793;SDS011;72533;52.852;6.176;2024-01-30T02:23:13;25.70;;;16.27;;
82793;SDS011;72533;52.852;6.176;2024-01-30T02:25:40;26.08;;;15.95;;
82793;SDS011;72533;52.852;6.176;2024-01-30T02:28:14;28.23;;;18.77;;
82793;SDS011;72533;52.852;6.176;2024-01-30T02:30:40;26.33;;;16.38;;
82793;SDS011;72533;52.852;6.176;2024-01-30T02:33:05;23.23;;;17.17;;
82793;SDS011;72533;52.852;6.176;2024-01-30T02:35:30;27.57;;;17.20;;
82793;SDS011;72533;52.852;6.176;2024-01-30T02:37:55;26.30;;;17.13;;
82793;SDS011;72533;52.852;6.176;2024-01-30T02:40:21;29.87;;;19.93;;
82793;SDS011;72533;52.852;6.176;2024-01-30T02:42:46;29.83;;;20.70;;
82793;SDS011;72533;52.852;6.176;2024-01-30T02:45:11;24.17;;;17.50;;
82793;SDS011;72533;52.852;6.176;2024-01-30T02:47:36;22.27;;;14.77;;
82793;SDS011;72533;52.852;6.176;2024-01-30T02:50:02;25.63;;;14.80;;
82793;SDS011;72533;52.852;6.176;2024-01-30T02:52:27;26.27;;;17.13;;
82793;SDS011;72533;52.852;6.176;2024-01-30T02:54:52;29.13;;;19.07;;
82793;SDS011;72533;52.852;6.176;2024-01-30T02:57:17;25.30;;;18.73;;
82793;SDS011;72533;52.852;6.176;2024-01-30T02:59:43;29.17;;;19.37;;
82793;SDS011;72533;52.852;6.176;2024-01-30T03:02:08;26.10;;;16.67;;
82793;SDS011;72533;52.852;6.176;2024-01-30T03:04:33;28.03;;;19.37;;
82793;SDS011;72533;52.852;6.176;2024-01-30T03:06:58;26.50;;;18.63;;
82793;SDS011;72533;52.852;6.176;2024-01-30T03:09:23;27.53;;;16.57;;
82793;SDS011;72533;52.852;6.176;2024-01-30T03:11:49;26.80;;;16.47;;
82793;SDS011;72533;52.852;6.176;2024-01-30T03:14:14;28.83;;;17.90;;
82793;SDS011;72533;52.852;6.176;2024-01-30T03:16:39;26.40;;;17.60;;
82793;SDS011;72533;52.852;6.176;2024-01-30T03:19:05;28.53;;;16.87;;
82793;SDS011;72533;52.852;6.176;2024-01-30T03:21:32;23.02;;;14.32;;
82793;SDS011;72533;52.852;6.176;2024-01-30T03:23:57;26.77;;;18.13;;
82793;SDS011;72533;52.852;6.176;2024-01-30T03:26:23;21.17;;;14.20;;
82793;SDS011;72533;52.852;6.176;2024-01-30T03:28:48;27.33;;;15.23;;
82793;SDS011;72533;52.852;6.176;2024-01-30T03:31:14;24.07;;;16.13;;
82793;SDS011;72533;52.852;6.176;2024-01-30T03:33:39;27.17;;;18.27;;
82793;SDS011;72533;52.852;6.176;2024-01-30T03:36:04;24.10;;;15.37;;
82793;SDS011;72533;52.852;6.176;2024-01-30T03:38:30;27.50;;;16.20;;
82793;SDS011;72533;52.852;6.176;2024-01-30T03:40:57;24.92;;;14.50;;
82793;SDS011;72533;52.852;6.176;2024-01-30T03:43:22;21.33;;;11.17;;
82793;SDS011;72533;52.852;6.176;2024-01-30T03:45:47;23.43;;;15.33;;
82793;SDS011;72533;52.852;6.176;2024-01-30T03:48:13;23.90;;;15.53;;
82793;SDS011;72533;52.852;6.176;2024-01-30T03:50:38;12.87;;;8.50;;
82793;SDS011;72533;52.852;6.176;2024-01-30T03:53:03;16.53;;;10.57;;
82793;SDS011;72533;52.852;6.176;2024-01-30T03:55:29;24.90;;;17.20;;
82793;SDS011;72533;52.852;6.176;2024-01-30T03:57:54;20.97;;;13.47;;
82793;SDS011;72533;52.852;6.176;2024-01-30T04:00:19;15.30;;;8.83;;
82793;SDS011;72533;52.852;6.176;2024-01-30T04:02:44;16.00;;;8.63;;
82793;SDS011;72533;52.852;6.176;2024-01-30T04:05:09;12.85;;;8.48;;
82793;SDS011;72533;52.852;6.176;2024-01-30T04:07:35;19.40;;;12.83;;
82793;SDS011;72533;52.852;6.176;2024-01-30T04:10:00;20.43;;;12.20;;
82793;SDS011;72533;52.852;6.176;2024-01-30T04:12:25;22.53;;;12.20;;
82793;SDS011;72533;52.852;6.176;2024-01-30T04:14:50;22.50;;;13.33;;
82793;SDS011;72533;52.852;6.176;2024-01-30T04:17:16;22.03;;;13.87;;
82793;SDS011;72533;52.852;6.176;2024-01-30T04:19:41;19.63;;;12.50;;
82793;SDS011;72533;52.852;6.176;2024-01-30T04:22:06;13.40;;;8.43;;
82793;SDS011;72533;52.852;6.176;2024-01-30T04:24:31;19.53;;;12.07;;
82793;SDS011;72533;52.852;6.176;2024-01-30T04:26:57;17.70;;;11.90;;
82793;SDS011;72533;52.852;6.176;2024-01-30T04:29:22;20.20;;;12.17;;
82793;SDS011;72533;52.852;6.176;2024-01-30T04:31:47;19.45;;;12.88;;
82793;SDS011;72533;52.852;6.176;2024-01-30T04:34:12;18.77;;;12.40;;
82793;SDS011;72533;52.852;6.176;2024-01-30T04:36:38;16.17;;;8.87;;
82793;SDS011;72533;52.852;6.176;2024-01-30T04:39:03;22.43;;;13.60;;
82793;SDS011;72533;52.852;6.176;2024-01-30T04:41:28;19.30;;;10.95;;
82793;SDS011;72533;52.852;6.176;2024-01-30T04:43:56;16.35;;;9.15;;
82793;SDS011;72533;52.852;6.176;2024-01-30T04:46:21;20.83;;;10.70;;
82793;SDS011;72533;52.852;6.176;2024-01-30T04:48:47;12.70;;;9.57;;
82793;SDS011;72533;52.852;6.176;2024-01-30T04:51:12;17.30;;;11.03;;
82793;SDS011;72533;52.852;6.176;2024-01-30T04:53:37;30.90;;;8.23;;
82793;SDS011;72533;52.852;6.176;2024-01-30T04:56:04;18.52;;;10.23;;
82793;SDS011;72533;52.852;6.176;2024-01-30T04:58:29;21.05;;;13.38;;
82793;SDS011;72533;52.852;6.176;2024-01-30T05:00:55;11.90;;;7.83;;
82793;SDS011;72533;52.852;6.176;2024-01-30T05:03:20;16.83;;;10.17;;
82793;SDS011;72533;52.852;6.176;2024-01-30T05:05:47;19.73;;;11.00;;
82793;SDS011;72533;52.852;6.176;2024-01-30T05:08:12;20.00;;;12.40;;
82793;SDS011;72533;52.852;6.176;2024-01-30T05:10:37;19.57;;;13.90;;
82793;SDS011;72533;52.852;6.176;2024-01-30T05:13:03;19.87;;;11.87;;
82793;SDS011;72533;52.852;6.176;2024-01-30T05:15:28;16.63;;;10.70;;
82793;SDS011;72533;52.852;6.176;2024-01-30T05:17:53;20.33;;;11.60;;
82793;SDS011;72533;52.852;6.176;2024-01-30T05:20:19;16.63;;;10.17;;
82793;SDS011;72533;52.852;6.176;2024-01-30T05:22:45;19.15;;;12.02;;
82793;SDS011;72533;52.852;6.176;2024-01-30T05:25:10;16.20;;;10.10;;
82793;SDS011;72533;52.852;6.176;2024-01-30T05:27:36;17.98;;;11.10;;
82793;SDS011;72533;52.852;6.176;2024-01-30T05:30:01;19.00;;;11.10;;
82793;SDS011;72533;52.852;6.176;2024-01-30T05:32:26;18.27;;;12.13;;
82793;SDS011;72533;52.852;6.176;2024-01-30T05:34:51;17.00;;;9.73;;
82793;SDS011;72533;52.852;6.176;2024-01-30T05:37:17;15.17;;;10.17;;
82793;SDS011;72533;52.852;6.176;2024-01-30T05:39:42;15.68;;;10.90;;
82793;SDS011;72533;52.852;6.176;2024-01-30T05:42:08;17.03;;;12.33;;
82793;SDS011;72533;52.852;6.176;2024-01-30T05:44:33;18.07;;;12.33;;
82793;SDS011;72533;52.852;6.176;2024-01-30T05:46:58;17.73;;;11.43;;
82793;SDS011;72533;52.852;6.176;2024-01-30T05:49:23;12.13;;;7.40;;
82793;SDS011;72533;52.852;6.176;2024-01-30T05:51:48;16.63;;;11.47;;
82793;SDS011;72533;52.852;6.176;2024-01-30T05:54:14;16.23;;;10.97;;
82793;SDS011;72533;52.852;6.176;2024-01-30T05:56:39;15.93;;;9.67;;
82793;SDS011;72533;52.852;6.176;2024-01-30T05:59:04;13.63;;;8.13;;
82793;SDS011;72533;52.852;6.176;2024-01-30T06:01:29;14.38;;;10.55;;
82793;SDS011;72533;52.852;6.176;2024-01-30T06:03:55;13.00;;;8.23;;
82793;SDS011;72533;52.852;6.176;2024-01-30T06:06:20;17.25;;;10.32;;
82793;SDS011;72533;52.852;6.176;2024-01-30T06:08:45;17.53;;;11.80;;
82793;SDS011;72533;52.852;6.176;2024-01-30T06:11:11;13.93;;;9.30;;
82793;SDS011;72533;52.852;6.176;2024-01-30T06:13:37;15.82;;;9.32;;
82793;SDS011;72533;52.852;6.176;2024-01-30T06:16:02;16.07;;;11.63;;
82793;SDS011;72533;52.852;6.176;2024-01-30T06:18:27;14.93;;;9.03;;
82793;SDS011;72533;52.852;6.176;2024-01-30T06:20:54;17.00;;;10.60;;
82793;SDS011;72533;52.852;6.176;2024-01-30T06:23:19;15.03;;;9.30;;
82793;SDS011;72533;52.852;6.176;2024-01-30T06:25:44;12.77;;;8.83;;
82793;SDS011;72533;52.852;6.176;2024-01-30T06:28:10;16.30;;;10.53;;
82793;SDS011;72533;52.852;6.176;2024-01-30T06:30:35;13.40;;;9.73;;
82793;SDS011;72533;52.852;6.176;2024-01-30T06:33:00;18.80;;;10.47;;
82793;SDS011;72533;52.852;6.176;2024-01-30T06:35:25;15.73;;;9.17;;
82793;SDS011;72533;52.852;6.176;2024-01-30T06:37:51;16.47;;;11.57;;
82793;SDS011;72533;52.852;6.176;2024-01-30T06:40:16;14.23;;;9.77;;
82793;SDS011;72533;52.852;6.176;2024-01-30T06:42:41;17.60;;;10.20;;
82793;SDS011;72533;52.852;6.176;2024-01-30T06:45:06;17.33;;;11.40;;
82793;SDS011;72533;52.852;6.176;2024-01-30T06:47:33;13.55;;;8.52;;
82793;SDS011;72533;52.852;6.176;2024-01-30T06:49:58;16.23;;;10.10;;
82793;SDS011;72533;52.852;6.176;2024-01-30T06:52:24;16.60;;;11.02;;
82793;SDS011;72533;52.852;6.176;2024-01-30T06:54:49;16.00;;;9.97;;
82793;SDS011;72533;52.852;6.176;2024-01-30T06:57:14;14.47;;;7.97;;
82793;SDS011;72533;52.852;6.176;2024-01-30T06:59:39;14.40;;;9.07;;
82793;SDS011;72533;52.852;6.176;2024-01-30T07:02:09;18.20;;;10.88;;
82793;SDS011;72533;52.852;6.176;2024-01-30T07:04:34;15.23;;;8.25;;
82793;SDS011;72533;52.852;6.176;2024-01-30T07:07:02;18.17;;;11.95;;
82793;SDS011;72533;52.852;6.176;2024-01-30T07:09:27;17.97;;;11.47;;
82793;SDS011;72533;52.852;6.176;2024-01-30T07:11:53;17.23;;;11.23;;
82793;SDS011;72533;52.852;6.176;2024-01-30T07:14:18;16.58;;;9.65;;
82793;SDS011;72533;52.852;6.176;2024-01-30T07:16:43;16.10;;;9.00;;
82793;SDS011;72533;52.852;6.176;2024-01-30T07:19:08;18.48;;;9.85;;
82793;SDS011;72533;52.852;6.176;2024-01-30T07:21:34;12.38;;;7.63;;
82793;SDS011;72533;52.852;6.176;2024-01-30T07:23:59;14.23;;;8.97;;
82793;SDS011;72533;52.852;6.176;2024-01-30T07:26:24;16.87;;;9.53;;
82793;SDS011;72533;52.852;6.176;2024-01-30T07:28:50;17.60;;;9.87;;
82793;SDS011;72533;52.852;6.176;2024-01-30T07:31:16;15.45;;;9.70;;
82793;SDS011;72533;52.852;6.176;2024-01-30T07:33:41;14.03;;;9.80;;
82793;SDS011;72533;52.852;6.176;2024-01-30T07:36:06;18.47;;;9.83;;
82793;SDS011;72533;52.852;6.176;2024-01-30T07:38:31;12.80;;;7.07;;
82793;SDS011;72533;52.852;6.176;2024-01-30T07:40:57;17.23;;;9.05;;
82793;SDS011;72533;52.852;6.176;2024-01-30T07:43:22;16.03;;;8.80;;
82793;SDS011;72533;52.852;6.176;2024-01-30T07:45:47;14.43;;;9.83;;
82793;SDS011;72533;52.852;6.176;2024-01-30T07:48:13;16.07;;;9.30;;
82793;SDS011;72533;52.852;6.176;2024-01-30T07:50:39;12.13;;;8.00;;
82793;SDS011;72533;52.852;6.176;2024-01-30T07:53:04;17.83;;;11.93;;
82793;SDS011;72533;52.852;6.176;2024-01-30T07:55:29;14.33;;;8.77;;
82793;SDS011;72533;52.852;6.176;2024-01-30T07:57:56;15.85;;;10.52;;
82793;SDS011;72533;52.852;6.176;2024-01-30T08:00:22;15.85;;;10.82;;
82793;SDS011;72533;52.852;6.176;2024-01-30T08:02:53;14.15;;;10.32;;
82793;SDS011;72533;52.852;6.176;2024-01-30T08:05:20;13.52;;;8.68;;
82793;SDS011;72533;52.852;6.176;2024-01-30T08:07:47;13.65;;;8.57;;
82793;SDS011;72533;52.852;6.176;2024-01-30T08:10:12;15.60;;;10.10;;
82793;SDS011;72533;52.852;6.176;2024-01-30T08:12:40;18.63;;;11.85;;
82793;SDS011;72533;52.852;6.176;2024-01-30T08:15:06;15.75;;;9.85;;
82793;SDS011;72533;52.852;6.176;2024-01-30T08:17:31;15.38;;;10.85;;
82793;SDS011;72533;52.852;6.176;2024-01-30T08:19:56;16.27;;;11.27;;
82793;SDS011;72533;52.852;6.176;2024-01-30T08:22:22;14.53;;;10.77;;
82793;SDS011;72533;52.852;6.176;2024-01-30T08:24:47;13.27;;;7.83;;
82793;SDS011;72533;52.852;6.176;2024-01-30T08:27:12;15.67;;;9.37;;
82793;SDS011;72533;52.852;6.176;2024-01-30T08:29:37;16.07;;;11.77;;
82793;SDS011;72533;52.852;6.176;2024-01-30T08:32:04;21.67;;;10.17;;
82793;SDS011;72533;52.852;6.176;2024-01-30T08:34:29;15.90;;;9.32;;
82793;SDS011;72533;52.852;6.176;2024-01-30T08:36:54;14.37;;;9.50;;
82793;SDS011;72533;52.852;6.176;2024-01-30T08:39:19;15.40;;;9.80;;
82793;SDS011;72533;52.852;6.176;2024-01-30T08:41:45;18.63;;;11.03;;
82793;SDS011;72533;52.852;6.176;2024-01-30T08:44:10;15.77;;;10.83;;
82793;SDS011;72533;52.852;6.176;2024-01-30T08:46:36;19.73;;;11.60;;
82793;SDS011;72533;52.852;6.176;2024-01-30T08:49:01;12.63;;;7.88;;
82793;SDS011;72533;52.852;6.176;2024-01-30T08:51:26;16.43;;;10.07;;
82793;SDS011;72533;52.852;6.176;2024-01-30T08:53:52;18.87;;;12.10;;
82793;SDS011;72533;52.852;6.176;2024-01-30T08:56:18;14.35;;;8.75;;
82793;SDS011;72533;52.852;6.176;2024-01-30T08:58:44;15.13;;;10.80;;
82793;SDS011;72533;52.852;6.176;2024-01-30T09:01:09;13.10;;;7.50;;
82793;SDS011;72533;52.852;6.176;2024-01-30T09:03:34;14.37;;;8.20;;
82793;SDS011;72533;52.852;6.176;2024-01-30T09:05:59;18.00;;;11.07;;
82793;SDS011;72533;52.852;6.176;2024-01-30T09:08:24;15.40;;;10.20;;
82793;SDS011;72533;52.852;6.176;2024-01-30T09:10:50;18.00;;;10.20;;
82793;SDS011;72533;52.852;6.176;2024-01-30T09:13:15;18.37;;;10.33;;
82793;SDS011;72533;52.852;6.176;2024-01-30T09:15:41;15.15;;;9.05;;
82793;SDS011;72533;52.852;6.176;2024-01-30T09:18:07;15.15;;;9.73;;
82793;SDS011;72533;52.852;6.176;2024-01-30T09:20:32;14.85;;;8.98;;
82793;SDS011;72533;52.852;6.176;2024-01-30T09:22:57;15.07;;;9.57;;
82793;SDS011;72533;52.852;6.176;2024-01-30T09:25:22;15.23;;;9.27;;
82793;SDS011;72533;52.852;6.176;2024-01-30T09:27:47;20.50;;;11.47;;
82793;SDS011;72533;52.852;6.176;2024-01-30T09:30:13;15.97;;;10.17;;
82793;SDS011;72533;52.852;6.176;2024-01-30T09:32:39;14.33;;;7.97;;
82793;SDS011;72533;52.852;6.176;2024-01-30T09:35:04;18.35;;;9.88;;
82793;SDS011;72533;52.852;6.176;2024-01-30T09:37:29;18.33;;;10.80;;
82793;SDS011;72533;52.852;6.176;2024-01-30T09:39:55;15.60;;;9.23;;
82793;SDS011;72533;52.852;6.176;2024-01-30T09:42:27;16.90;;;9.83;;
82793;SDS011;72533;52.852;6.176;2024-01-30T09:44:53;18.02;;;9.77;;
82793;SDS011;72533;52.852;6.176;2024-01-30T09:47:18;16.47;;;8.47;;
82793;SDS011;72533;52.852;6.176;2024-01-30T09:49:43;12.80;;;8.17;;
82793;SDS011;72533;52.852;6.176;2024-01-30T09:52:09;16.83;;;11.00;;
82793;SDS011;72533;52.852;6.176;2024-01-30T09:54:34;16.93;;;10.30;;
82793;SDS011;72533;52.852;6.176;2024-01-30T09:57:00;19.23;;;10.40;;
82793;SDS011;72533;52.852;6.176;2024-01-30T09:59:25;18.23;;;10.20;;
82793;SDS011;72533;52.852;6.176;2024-01-30T10:01:50;19.73;;;11.50;;
82793;SDS011;72533;52.852;6.176;2024-01-30T10:04:16;22.55;;;13.00;;
82793;SDS011;72533;52.852;6.176;2024-01-30T10:06:41;21.07;;;11.03;;
82793;SDS011;72533;52.852;6.176;2024-01-30T10:09:07;16.83;;;9.23;;
82793;SDS011;72533;52.852;6.176;2024-01-30T10:11:34;20.25;;;12.13;;
82793;SDS011;72533;52.852;6.176;2024-01-30T10:13:59;14.03;;;9.13;;
82793;SDS011;72533;52.852;6.176;2024-01-30T10:16:25;16.45;;;9.43;;
82793;SDS011;72533;52.852;6.176;2024-01-30T10:18:50;17.57;;;9.20;;
82793;SDS011;72533;52.852;6.176;2024-01-30T10:21:15;16.67;;;9.23;;
82793;SDS011;72533;52.852;6.176;2024-01-30T10:23:41;14.50;;;7.47;;
82793;SDS011;72533;52.852;6.176;2024-01-30T10:26:08;15.15;;;8.60;;
82793;SDS011;72533;52.852;6.176;2024-01-30T10:28:33;15.10;;;9.47;;
82793;SDS011;72533;52.852;6.176;2024-01-30T10:30:59;13.07;;;8.10;;
82793;SDS011;72533;52.852;6.176;2024-01-30T10:33:28;13.55;;;8.35;;
82793;SDS011;72533;52.852;6.176;2024-01-30T10:35:59;16.87;;;7.03;;
82793;SDS011;72533;52.852;6.176;2024-01-30T10:38:25;16.92;;;9.77;;
82793;SDS011;72533;52.852;6.176;2024-01-30T10:40:51;15.82;;;6.55;;
82793;SDS011;72533;52.852;6.176;2024-01-30T10:43:17;14.95;;;9.32;;
82793;SDS011;72533;52.852;6.176;2024-01-30T10:45:46;15.10;;;7.45;;
82793;SDS011;72533;52.852;6.176;2024-01-30T10:48:14;13.23;;;7.82;;
82793;SDS011;72533;52.852;6.176;2024-01-30T10:50:41;14.70;;;8.70;;
82793;SDS011;72533;52.852;6.176;2024-01-30T10:53:07;14.80;;;7.90;;
82793;SDS011;72533;52.852;6.176;2024-01-30T10:55:33;17.50;;;9.85;;
82793;SDS011;72533;52.852;6.176;2024-01-30T10:57:58;10.80;;;6.53;;
82793;SDS011;72533;52.852;6.176;2024-01-30T11:00:24;14.70;;;8.38;;
82793;SDS011;72533;52.852;6.176;2024-01-30T11:02:51;15.77;;;9.55;;
82793;SDS011;72533;52.852;6.176;2024-01-30T11:05:23;15.27;;;9.77;;
82793;SDS011;72533;52.852;6.176;2024-01-30T11:07:48;13.15;;;7.18;;
82793;SDS011;72533;52.852;6.176;2024-01-30T11:10:14;14.50;;;8.10;;
82793;SDS011;72533;52.852;6.176;2024-01-30T11:12:40;15.82;;;7.60;;
82793;SDS011;72533;52.852;6.176;2024-01-30T11:15:14;11.65;;;6.45;;
82793;SDS011;72533;52.852;6.176;2024-01-30T11:20:15;16.58;;;7.45;;
82793;SDS011;72533;52.852;6.176;2024-01-30T11:22:42;15.07;;;8.63;;
82793;SDS011;72533;52.852;6.176;2024-01-30T11:25:11;15.35;;;7.95;;
82793;SDS011;72533;52.852;6.176;2024-01-30T11:27:36;16.70;;;9.88;;
82793;SDS011;72533;52.852;6.176;2024-01-30T11:30:02;10.95;;;6.93;;
82793;SDS011;72533;52.852;6.176;2024-01-30T11:32:28;16.48;;;8.18;;
82793;SDS011;72533;52.852;6.176;2024-01-30T11:34:53;9.77;;;5.70;;
82793;SDS011;72533;52.852;6.176;2024-01-30T11:37:19;11.35;;;5.55;;
82793;SDS011;72533;52.852;6.176;2024-01-30T11:39:45;11.30;;;4.88;;
82793;SDS011;72533;52.852;6.176;2024-01-30T11:42:11;10.10;;;4.47;;
82793;SDS011;72533;52.852;6.176;2024-01-30T11:44:36;11.27;;;5.30;;
82793;SDS011;72533;52.852;6.176;2024-01-30T11:47:01;8.67;;;3.40;;
82793;SDS011;72533;52.852;6.176;2024-01-30T11:49:28;11.90;;;3.60;;
82793;SDS011;72533;52.852;6.176;2024-01-30T11:51:53;10.63;;;4.38;;
82793;SDS011;72533;52.852;6.176;2024-01-30T11:54:19;9.50;;;2.92;;
82793;SDS011;72533;52.852;6.176;2024-01-30T11:56:44;6.77;;;2.47;;
82793;SDS011;72533;52.852;6.176;2024-01-30T11:59:09;8.87;;;3.50;;
82793;SDS011;72533;52.852;6.176;2024-01-30T12:01:34;8.43;;;4.67;;
82793;SDS011;72533;52.852;6.176;2024-01-30T12:04:00;8.25;;;2.75;;
82793;SDS011;72533;52.852;6.176;2024-01-30T12:06:25;6.57;;;2.80;;
82793;SDS011;72533;52.852;6.176;2024-01-30T12:09:00;5.80;;;1.73;;
82793;SDS011;72533;52.852;6.176;2024-01-30T12:11:28;6.43;;;2.85;;
82793;SDS011;72533;52.852;6.176;2024-01-30T12:13:55;5.70;;;2.33;;
82793;SDS011;72533;52.852;6.176;2024-01-30T12:16:20;7.68;;;3.38;;
82793;SDS011;72533;52.852;6.176;2024-01-30T12:18:45;8.43;;;1.77;;
82793;SDS011;72533;52.852;6.176;2024-01-30T12:21:11;7.23;;;2.53;;
82793;SDS011;72533;52.852;6.176;2024-01-30T12:23:36;5.90;;;1.60;;
82793;SDS011;72533;52.852;6.176;2024-01-30T12:26:01;5.72;;;1.85;;
82793;SDS011;72533;52.852;6.176;2024-01-30T12:28:28;4.45;;;1.33;;
82793;SDS011;72533;52.852;6.176;2024-01-30T12:30:55;3.45;;;1.58;;
82793;SDS011;72533;52.852;6.176;2024-01-30T12:33:20;5.57;;;2.35;;
82793;SDS011;72533;52.852;6.176;2024-01-30T12:35:46;7.28;;;2.10;;
82793;SDS011;72533;52.852;6.176;2024-01-30T12:38:12;5.47;;;2.78;;
82793;SDS011;72533;52.852;6.176;2024-01-30T12:40:37;8.43;;;2.50;;
82793;SDS011;72533;52.852;6.176;2024-01-30T12:43:03;7.75;;;3.38;;
82793;SDS011;72533;52.852;6.176;2024-01-30T12:45:28;4.60;;;1.57;;
82793;SDS011;72533;52.852;6.176;2024-01-30T12:47:55;4.78;;;1.83;;
82793;SDS011;72533;52.852;6.176;2024-01-30T12:50:20;5.68;;;2.75;;
82793;SDS011;72533;52.852;6.176;2024-01-30T12:52:45;5.90;;;2.63;;
82793;SDS011;72533;52.852;6.176;2024-01-30T12:55:11;5.10;;;2.33;;
82793;SDS011;72533;52.852;6.176;2024-01-30T12:57:36;6.53;;;1.70;;
82793;SDS011;72533;52.852;6.176;2024-01-30T13:00:01;5.60;;;2.30;;
82793;SDS011;72533;52.852;6.176;2024-01-30T13:02:27;5.00;;;2.25;;
82793;SDS011;72533;52.852;6.176;2024-01-30T13:04:59;6.65;;;2.88;;
82793;SDS011;72533;52.852;6.176;2024-01-30T13:07:24;5.27;;;2.53;;
82793;SDS011;72533;52.852;6.176;2024-01-30T13:09:50;5.23;;;1.90;;
82793;SDS011;72533;52.852;6.176;2024-01-30T13:12:15;4.63;;;2.07;;
82793;SDS011;72533;52.852;6.176;2024-01-30T13:14:40;3.90;;;1.63;;
82793;SDS011;72533;52.852;6.176;2024-01-30T13:17:05;7.20;;;2.40;;
82793;SDS011;72533;52.852;6.176;2024-01-30T13:19:30;7.27;;;2.70;;
82793;SDS011;72533;52.852;6.176;2024-01-30T13:21:56;3.93;;;2.67;;
82793;SDS011;72533;52.852;6.176;2024-01-30T13:24:21;3.77;;;2.03;;
82793;SDS011;72533;52.852;6.176;2024-01-30T13:26:46;4.83;;;1.73;;
82793;SDS011;72533;52.852;6.176;2024-01-30T13:29:11;5.63;;;2.28;;
82793;SDS011;72533;52.852;6.176;2024-01-30T13:31:37;5.63;;;2.23;;
82793;SDS011;72533;52.852;6.176;2024-01-30T13:34:02;5.53;;;1.93;;
82793;SDS011;72533;52.852;6.176;2024-01-30T13:36:27;3.97;;;1.23;;
82793;SDS011;72533;52.852;6.176;2024-01-30T13:38:52;4.72;;;1.88;;
82793;SDS011;72533;52.852;6.176;2024-01-30T13:41:18;5.40;;;2.13;;
82793;SDS011;72533;52.852;6.176;2024-01-30T13:43:43;4.13;;;1.60;;
82793;SDS011;72533;52.852;6.176;2024-01-30T13:46:09;4.05;;;1.63;;
82793;SDS011;72533;52.852;6.176;2024-01-30T13:48:35;5.65;;;1.92;;
82793;SDS011;72533;52.852;6.176;2024-01-30T13:51:00;5.70;;;2.53;;
82793;SDS011;72533;52.852;6.176;2024-01-30T13:53:25;5.60;;;1.95;;
82793;SDS011;72533;52.852;6.176;2024-01-30T13:55:50;6.80;;;3.13;;
82793;SDS011;72533;52.852;6.176;2024-01-30T13:58:16;6.27;;;1.70;;
82793;SDS011;72533;52.852;6.176;2024-01-30T14:00:41;7.83;;;3.87;;
82793;SDS011;72533;52.852;6.176;2024-01-30T14:03:06;5.77;;;2.40;;
82793;SDS011;72533;52.852;6.176;2024-01-30T14:05:31;5.03;;;2.03;;
82793;SDS011;72533;52.852;6.176;2024-01-30T14:07:57;8.20;;;2.47;;
82793;SDS011;72533;52.852;6.176;2024-01-30T14:10:22;7.15;;;2.85;;
82793;SDS011;72533;52.852;6.176;2024-01-30T14:12:48;5.88;;;1.58;;
82793;SDS011;72533;52.852;6.176;2024-01-30T14:15:13;5.53;;;1.97;;
82793;SDS011;72533;52.852;6.176;2024-01-30T14:17:39;5.78;;;3.53;;
82793;SDS011;72533;52.852;6.176;2024-01-30T14:20:05;4.50;;;1.93;;
82793;SDS011;72533;52.852;6.176;2024-01-30T14:22:31;5.22;;;2.58;;